sensor_id;sensor_type;location;lat;lon;timestamp;pressure;altitude;pressure_sealevel;temperature;humidity
692;BME280;70475;50.084;8.576;2023-08-21T00:01:39;101168.88;;;24.05;75.93
692;BME280;70475;50.084;8.576;2023-08-21T00:04:07;101161.34;;;23.91;76.24
692;BME280;70475;50.084;8.576;2023-08-21T00:06:34;101165.72;;;23.92;76.11
692;BME280;70475;50.084;8.576;2023-08-21T00:09:02;101160.28;;;23.92;76.04
692;BME280;70475;50.084;8.576;2023-08-21T00:11:30;101166.78;;;23.91;76.02
692;BME280;70475;50.084;8.576;2023-08-21T00:13:57;101168.97;;;23.94;75.87
692;BME280;70475;50.084;8.576;2023-08-21T00:16:28;101164.06;;;23.91;75.79
692;BME280;70475;50.084;8.576;2023-08-21T00:18:57;101169.84;;;23.94;75.84
692;BME280;70475;50.084;8.576;2023-08-21T00:21:25;101172.63;;;23.99;75.45
692;BME280;70475;50.084;8.576;2023-08-21T00:23:53;101164.75;;;24.03;74.57
692;BME280;70475;50.084;8.576;2023-08-21T00:26:20;101162.53;;;24.00;74.59
692;BME280;70475;50.084;8.576;2023-08-21T00:28:48;101170.41;;;23.96;75.25
692;BME280;70475;50.084;8.576;2023-08-21T00:31:15;101162.50;;;23.95;74.67
692;BME280;70475;50.084;8.576;2023-08-21T00:33:43;101158.88;;;23.89;74.98
692;BME280;70475;50.084;8.576;2023-08-21T00:36:12;101155.28;;;23.84;75.28
692;BME280;70475;50.084;8.576;2023-08-21T00:38:42;101161.56;;;23.84;75.16
692;BME280;70475;50.084;8.576;2023-08-21T00:41:12;101161.50;;;23.79;75.21
692;BME280;70475;50.084;8.576;2023-08-21T00:43:40;101154.94;;;23.75;75.60
692;BME280;70475;50.084;8.576;2023-08-21T00:46:07;101155.19;;;23.74;75.44
692;BME280;70475;50.084;8.576;2023-08-21T00:48:35;101159.22;;;23.66;75.84
692;BME280;70475;50.084;8.576;2023-08-21T00:51:03;101152.16;;;23.70;75.84
692;BME280;70475;50.084;8.576;2023-08-21T00:53:33;101156.81;;;23.70;75.63
692;BME280;70475;50.084;8.576;2023-08-21T00:56:00;101155.03;;;23.59;76.36
692;BME280;70475;50.084;8.576;2023-08-21T00:58:28;101148.16;;;23.51;76.69
692;BME280;70475;50.084;8.576;2023-08-21T01:00:56;101150.34;;;23.49;76.73
692;BME280;70475;50.084;8.576;2023-08-21T01:03:24;101148.16;;;23.51;76.94
692;BME280;70475;50.084;8.576;2023-08-21T01:05:54;101143.47;;;23.42;77.57
692;BME280;70475;50.084;8.576;2023-08-21T01:08:28;101145.03;;;23.38;77.52
692;BME280;70475;50.084;8.576;2023-08-21T01:11:06;101152.31;;;23.32;77.66
692;BME280;70475;50.084;8.576;2023-08-21T01:13:47;101151.25;;;23.33;77.58
692;BME280;70475;50.084;8.576;2023-08-21T01:16:20;101162.44;;;23.37;77.57
692;BME280;70475;50.084;8.576;2023-08-21T01:18:49;101159.41;;;23.33;77.54
692;BME280;70475;50.084;8.576;2023-08-21T01:21:17;101154.41;;;23.25;77.52
692;BME280;70475;50.084;8.576;2023-08-21T01:23:46;101159.28;;;23.23;77.84
692;BME280;70475;50.084;8.576;2023-08-21T01:26:14;101166.25;;;23.19;78.22
692;BME280;70475;50.084;8.576;2023-08-21T01:28:41;101167.22;;;23.08;78.74
692;BME280;70475;50.084;8.576;2023-08-21T01:31:14;101175.91;;;23.05;79.03
692;BME280;70475;50.084;8.576;2023-08-21T01:33:45;101173.97;;;23.06;78.96
692;BME280;70475;50.084;8.576;2023-08-21T01:36:14;101174.19;;;22.99;79.31
692;BME280;70475;50.084;8.576;2023-08-21T01:38:43;101182.09;;;23.01;79.13
692;BME280;70475;50.084;8.576;2023-08-21T01:41:12;101187.75;;;22.99;79.29
692;BME280;70475;50.084;8.576;2023-08-21T01:43:45;101184.47;;;22.97;79.01
692;BME280;70475;50.084;8.576;2023-08-21T01:46:13;101182.84;;;22.96;79.23
692;BME280;70475;50.084;8.576;2023-08-21T01:48:49;101182.19;;;22.89;79.50
692;BME280;70475;50.084;8.576;2023-08-21T01:51:17;101185.72;;;22.90;79.36
692;BME280;70475;50.084;8.576;2023-08-21T01:53:45;101184.25;;;22.82;79.71
692;BME280;70475;50.084;8.576;2023-08-21T01:56:13;101186.47;;;22.85;79.83
692;BME280;70475;50.084;8.576;2023-08-21T01:58:41;101186.97;;;22.82;79.93
692;BME280;70475;50.084;8.576;2023-08-21T02:01:09;101180.91;;;22.75;80.37
692;BME280;70475;50.084;8.576;2023-08-21T02:03:40;101185.22;;;22.71;80.72
692;BME280;70475;50.084;8.576;2023-08-21T02:06:11;101179.34;;;22.63;81.17
692;BME280;70475;50.084;8.576;2023-08-21T02:08:39;101181.56;;;22.66;80.95
692;BME280;70475;50.084;8.576;2023-08-21T02:11:06;101186.69;;;22.62;81.12
692;BME280;70475;50.084;8.576;2023-08-21T02:13:35;101188.78;;;22.55;81.19
692;BME280;70475;50.084;8.576;2023-08-21T02:16:03;101192.78;;;22.53;81.40
692;BME280;70475;50.084;8.576;2023-08-21T02:18:31;101187.34;;;22.53;81.32
692;BME280;70475;50.084;8.576;2023-08-21T02:21:02;101187.03;;;22.49;81.70
692;BME280;70475;50.084;8.576;2023-08-21T02:23:29;101191.97;;;22.52;81.58
692;BME280;70475;50.084;8.576;2023-08-21T02:25:58;101189.81;;;22.54;81.55
692;BME280;70475;50.084;8.576;2023-08-21T02:28:25;101186.19;;;22.49;81.53
692;BME280;70475;50.084;8.576;2023-08-21T02:30:54;101186.09;;;22.44;81.89
692;BME280;70475;50.084;8.576;2023-08-21T02:33:22;101184.56;;;22.48;81.95
692;BME280;70475;50.084;8.576;2023-08-21T02:35:50;101186.94;;;22.44;82.20
692;BME280;70475;50.084;8.576;2023-08-21T02:38:18;101189.31;;;22.41;82.44
692;BME280;70475;50.084;8.576;2023-08-21T02:40:46;101190.63;;;22.38;82.71
692;BME280;70475;50.084;8.576;2023-08-21T02:43:17;101195.72;;;22.34;82.63
692;BME280;70475;50.084;8.576;2023-08-21T02:45:44;101195.31;;;22.26;82.99
692;BME280;70475;50.084;8.576;2023-08-21T02:48:13;101190.47;;;22.28;83.22
692;BME280;70475;50.084;8.576;2023-08-21T02:50:41;101190.81;;;22.32;83.02
692;BME280;70475;50.084;8.576;2023-08-21T02:53:08;101184.81;;;22.29;83.00
692;BME280;70475;50.084;8.576;2023-08-21T02:55:36;101182.91;;;22.30;82.82
692;BME280;70475;50.084;8.576;2023-08-21T02:58:03;101193.94;;;22.23;83.29
692;BME280;70475;50.084;8.576;2023-08-21T03:00:37;101195.16;;;22.16;83.71
692;BME280;70475;50.084;8.576;2023-08-21T03:03:08;101191.31;;;22.12;84.04
692;BME280;70475;50.084;8.576;2023-08-21T03:05:36;101192.19;;;22.17;83.64
692;BME280;70475;50.084;8.576;2023-08-21T03:08:04;101194.56;;;22.14;83.82
692;BME280;70475;50.084;8.576;2023-08-21T03:10:32;101186.44;;;22.14;83.77
692;BME280;70475;50.084;8.576;2023-08-21T03:13:00;101194.06;;;22.17;83.58
692;BME280;70475;50.084;8.576;2023-08-21T03:15:31;101190.72;;;22.10;84.14
692;BME280;70475;50.084;8.576;2023-08-21T03:18:05;101189.06;;;22.09;83.82
692;BME280;70475;50.084;8.576;2023-08-21T03:20:33;101187.25;;;21.98;84.42
692;BME280;70475;50.084;8.576;2023-08-21T03:23:02;101198.59;;;21.95;84.66
692;BME280;70475;50.084;8.576;2023-08-21T03:25:30;101201.78;;;21.92;84.85
692;BME280;70475;50.084;8.576;2023-08-21T03:27:57;101195.44;;;21.86;85.25
692;BME280;70475;50.084;8.576;2023-08-21T03:30:25;101191.59;;;21.82;85.70
692;BME280;70475;50.084;8.576;2023-08-21T03:32:53;101191.03;;;21.69;86.26
692;BME280;70475;50.084;8.576;2023-08-21T03:35:26;101195.78;;;21.62;86.93
692;BME280;70475;50.084;8.576;2023-08-21T03:37:54;101192.91;;;21.68;86.32
692;BME280;70475;50.084;8.576;2023-08-21T03:40:22;101192.81;;;21.75;85.74
692;BME280;70475;50.084;8.576;2023-08-21T03:42:50;101191.72;;;21.76;86.10
692;BME280;70475;50.084;8.576;2023-08-21T03:45:23;101195.38;;;21.42;89.58
692;BME280;70475;50.084;8.576;2023-08-21T03:47:54;101199.59;;;21.10;93.72
692;BME280;70475;50.084;8.576;2023-08-21T03:50:23;101195.97;;;20.93;95.34
692;BME280;70475;50.084;8.576;2023-08-21T03:52:51;101194.56;;;20.79;96.86
692;BME280;70475;50.084;8.576;2023-08-21T03:55:18;101197.28;;;20.67;98.36
692;BME280;70475;50.084;8.576;2023-08-21T03:57:47;101197.28;;;20.56;99.48
692;BME280;70475;50.084;8.576;2023-08-21T04:00:15;101201.16;;;20.60;99.24
692;BME280;70475;50.084;8.576;2023-08-21T04:02:42;101207.19;;;20.50;100.00
692;BME280;70475;50.084;8.576;2023-08-21T04:05:10;101204.81;;;20.42;100.00
692;BME280;70475;50.084;8.576;2023-08-21T04:07:38;101203.03;;;20.48;100.00
692;BME280;70475;50.084;8.576;2023-08-21T04:10:09;101199.63;;;20.52;100.00
692;BME280;70475;50.084;8.576;2023-08-21T04:12:36;101208.34;;;20.43;100.00
692;BME280;70475;50.084;8.576;2023-08-21T04:15:07;101210.69;;;20.39;100.00
692;BME280;70475;50.084;8.576;2023-08-21T04:17:38;101205.16;;;20.46;100.00
692;BME280;70475;50.084;8.576;2023-08-21T04:20:09;101206.56;;;20.60;97.57
692;BME280;70475;50.084;8.576;2023-08-21T04:22:37;101207.75;;;20.87;94.02
692;BME280;70475;50.084;8.576;2023-08-21T04:25:05;101209.28;;;21.06;91.92
692;BME280;70475;50.084;8.576;2023-08-21T04:27:33;101207.25;;;21.13;91.12
692;BME280;70475;50.084;8.576;2023-08-21T04:30:01;101214.47;;;21.07;91.24
692;BME280;70475;50.084;8.576;2023-08-21T04:32:30;101219.38;;;21.22;90.16
692;BME280;70475;50.084;8.576;2023-08-21T04:34:58;101216.78;;;21.15;90.67
692;BME280;70475;50.084;8.576;2023-08-21T04:37:26;101220.81;;;21.13;91.81
692;BME280;70475;50.084;8.576;2023-08-21T04:39:56;101224.94;;;20.69;96.83
692;BME280;70475;50.084;8.576;2023-08-21T04:42:24;101221.50;;;20.62;97.81
692;BME280;70475;50.084;8.576;2023-08-21T04:44:51;101225.97;;;20.45;99.69
692;BME280;70475;50.084;8.576;2023-08-21T04:47:20;101231.16;;;20.23;100.00
692;BME280;70475;50.084;8.576;2023-08-21T04:49:50;101230.91;;;20.25;100.00
692;BME280;70475;50.084;8.576;2023-08-21T04:52:18;101234.91;;;20.34;100.00
692;BME280;70475;50.084;8.576;2023-08-21T04:54:45;101237.41;;;20.47;100.00
692;BME280;70475;50.084;8.576;2023-08-21T04:57:13;101232.47;;;20.56;98.30
692;BME280;70475;50.084;8.576;2023-08-21T04:59:41;101222.09;;;20.76;94.83
692;BME280;70475;50.084;8.576;2023-08-21T05:02:09;101228.81;;;21.08;91.28
692;BME280;70475;50.084;8.576;2023-08-21T05:04:37;101223.25;;;21.26;89.63
692;BME280;70475;50.084;8.576;2023-08-21T05:07:06;101226.75;;;21.38;88.44
692;BME280;70475;50.084;8.576;2023-08-21T05:09:42;101239.22;;;21.50;87.20
692;BME280;70475;50.084;8.576;2023-08-21T05:12:10;101237.19;;;21.57;86.63
692;BME280;70475;50.084;8.576;2023-08-21T05:14:38;101230.44;;;21.60;86.32
692;BME280;70475;50.084;8.576;2023-08-21T05:17:05;101244.91;;;21.65;86.32
692;BME280;70475;50.084;8.576;2023-08-21T05:19:33;101239.84;;;21.69;86.06
692;BME280;70475;50.084;8.576;2023-08-21T05:22:01;101239.16;;;21.73;85.27
692;BME280;70475;50.084;8.576;2023-08-21T05:24:30;101238.44;;;21.78;85.37
692;BME280;70475;50.084;8.576;2023-08-21T05:26:58;101245.84;;;21.82;84.61
692;BME280;70475;50.084;8.576;2023-08-21T05:29:27;101248.97;;;21.91;83.76
692;BME280;70475;50.084;8.576;2023-08-21T05:31:55;101243.41;;;21.97;83.64
692;BME280;70475;50.084;8.576;2023-08-21T05:34:25;101245.72;;;22.05;82.82
692;BME280;70475;50.084;8.576;2023-08-21T05:36:52;101249.50;;;22.04;82.96
692;BME280;70475;50.084;8.576;2023-08-21T05:39:21;101250.75;;;22.13;82.33
692;BME280;70475;50.084;8.576;2023-08-21T05:41:50;101253.97;;;22.27;81.81
692;BME280;70475;50.084;8.576;2023-08-21T05:44:18;101256.69;;;22.44;81.14
692;BME280;70475;50.084;8.576;2023-08-21T05:46:46;101254.28;;;23.56;76.90
692;BME280;70475;50.084;8.576;2023-08-21T05:49:13;101255.03;;;26.18;65.64
692;BME280;70475;50.084;8.576;2023-08-21T05:51:41;101255.59;;;26.85;61.29
692;BME280;70475;50.084;8.576;2023-08-21T05:54:09;101245.97;;;27.76;58.43
692;BME280;70475;50.084;8.576;2023-08-21T05:56:36;101251.19;;;28.22;57.28
692;BME280;70475;50.084;8.576;2023-08-21T05:59:05;101243.09;;;29.26;53.60
692;BME280;70475;50.084;8.576;2023-08-21T06:01:33;101259.72;;;27.71;57.14
692;BME280;70475;50.084;8.576;2023-08-21T06:04:00;101265.69;;;26.15;62.32
692;BME280;70475;50.084;8.576;2023-08-21T06:06:32;101263.03;;;25.01;66.72
692;BME280;70475;50.084;8.576;2023-08-21T06:09:00;101256.81;;;25.67;64.24
692;BME280;70475;50.084;8.576;2023-08-21T06:11:29;101260.81;;;26.72;61.03
692;BME280;70475;50.084;8.576;2023-08-21T06:13:57;101263.16;;;25.88;63.50
692;BME280;70475;50.084;8.576;2023-08-21T06:16:26;101258.31;;;26.35;62.49
692;BME280;70475;50.084;8.576;2023-08-21T06:18:53;101254.50;;;26.86;60.51
692;BME280;70475;50.084;8.576;2023-08-21T06:21:21;101258.28;;;27.05;59.31
692;BME280;70475;50.084;8.576;2023-08-21T06:23:49;101259.16;;;27.69;57.99
692;BME280;70475;50.084;8.576;2023-08-21T06:26:16;101251.03;;;28.03;56.74
692;BME280;70475;50.084;8.576;2023-08-21T06:28:44;101259.69;;;26.88;59.85
692;BME280;70475;50.084;8.576;2023-08-21T06:31:11;101263.50;;;25.35;65.93
692;BME280;70475;50.084;8.576;2023-08-21T06:33:40;101264.97;;;24.69;68.53
692;BME280;70475;50.084;8.576;2023-08-21T06:36:08;101266.16;;;24.47;69.41
692;BME280;70475;50.084;8.576;2023-08-21T06:38:35;101268.41;;;24.28;70.86
692;BME280;70475;50.084;8.576;2023-08-21T06:41:03;101269.75;;;24.26;71.28
692;BME280;70475;50.084;8.576;2023-08-21T06:43:37;101266.69;;;24.49;71.18
692;BME280;70475;50.084;8.576;2023-08-21T06:46:10;101269.31;;;24.39;69.70
692;BME280;70475;50.084;8.576;2023-08-21T06:48:38;101258.69;;;24.37;70.31
692;BME280;70475;50.084;8.576;2023-08-21T06:51:08;101268.03;;;24.46;69.52
692;BME280;70475;50.084;8.576;2023-08-21T06:53:36;101264.41;;;24.36;70.20
692;BME280;70475;50.084;8.576;2023-08-21T06:56:04;101267.47;;;24.44;70.35
692;BME280;70475;50.084;8.576;2023-08-21T06:58:31;101256.88;;;24.48;70.08
692;BME280;70475;50.084;8.576;2023-08-21T07:01:00;101261.88;;;24.61;70.37
692;BME280;70475;50.084;8.576;2023-08-21T07:03:27;101260.41;;;24.80;69.75
692;BME280;70475;50.084;8.576;2023-08-21T07:05:56;101260.53;;;24.95;68.96
692;BME280;70475;50.084;8.576;2023-08-21T07:08:25;101257.50;;;24.91;69.02
692;BME280;70475;50.084;8.576;2023-08-21T07:10:53;101260.22;;;24.91;68.66
692;BME280;70475;50.084;8.576;2023-08-21T07:13:21;101268.13;;;24.93;68.11
692;BME280;70475;50.084;8.576;2023-08-21T07:15:48;101264.09;;;25.00;68.84
692;BME280;70475;50.084;8.576;2023-08-21T07:18:16;101266.59;;;25.07;68.11
692;BME280;70475;50.084;8.576;2023-08-21T07:20:44;101268.22;;;25.08;68.67
692;BME280;70475;50.084;8.576;2023-08-21T07:23:11;101267.34;;;24.97;68.77
692;BME280;70475;50.084;8.576;2023-08-21T07:25:40;101268.75;;;25.05;69.03
692;BME280;70475;50.084;8.576;2023-08-21T07:28:08;101263.13;;;25.21;68.18
692;BME280;70475;50.084;8.576;2023-08-21T07:30:37;101261.78;;;25.24;68.59
692;BME280;70475;50.084;8.576;2023-08-21T07:33:05;101268.28;;;25.18;68.70
692;BME280;70475;50.084;8.576;2023-08-21T07:35:33;101261.22;;;25.22;68.43
692;BME280;70475;50.084;8.576;2023-08-21T07:38:00;101260.25;;;25.38;67.96
692;BME280;70475;50.084;8.576;2023-08-21T07:40:28;101254.25;;;25.41;67.75
692;BME280;70475;50.084;8.576;2023-08-21T07:42:57;101253.84;;;25.22;68.73
692;BME280;70475;50.084;8.576;2023-08-21T07:45:25;101255.50;;;25.23;68.72
692;BME280;70475;50.084;8.576;2023-08-21T07:47:52;101251.44;;;25.26;67.44
692;BME280;70475;50.084;8.576;2023-08-21T07:50:38;101256.94;;;25.36;67.75
692;BME280;70475;50.084;8.576;2023-08-21T07:53:05;101250.97;;;25.34;68.42
692;BME280;70475;50.084;8.576;2023-08-21T07:55:33;101257.78;;;25.41;69.47
692;BME280;70475;50.084;8.576;2023-08-21T07:58:02;101257.63;;;25.63;67.90
692;BME280;70475;50.084;8.576;2023-08-21T08:00:30;101259.25;;;25.64;67.55
692;BME280;70475;50.084;8.576;2023-08-21T08:02:58;101246.16;;;25.71;66.71
692;BME280;70475;50.084;8.576;2023-08-21T08:05:26;101247.81;;;25.62;68.22
692;BME280;70475;50.084;8.576;2023-08-21T08:07:53;101248.66;;;25.77;67.82
692;BME280;70475;50.084;8.576;2023-08-21T08:10:21;101250.00;;;25.75;66.21
692;BME280;70475;50.084;8.576;2023-08-21T08:12:49;101251.09;;;25.74;67.68
692;BME280;70475;50.084;8.576;2023-08-21T08:15:18;101253.81;;;25.74;67.23
692;BME280;70475;50.084;8.576;2023-08-21T08:17:45;101249.50;;;25.88;67.73
692;BME280;70475;50.084;8.576;2023-08-21T08:20:13;101255.28;;;26.01;66.28
692;BME280;70475;50.084;8.576;2023-08-21T08:22:41;101252.31;;;26.13;66.14
692;BME280;70475;50.084;8.576;2023-08-21T08:25:09;101243.56;;;26.16;68.01
692;BME280;70475;50.084;8.576;2023-08-21T08:27:36;101248.75;;;26.13;68.94
692;BME280;70475;50.084;8.576;2023-08-21T08:30:05;101249.84;;;26.37;65.40
692;BME280;70475;50.084;8.576;2023-08-21T08:32:35;101258.88;;;26.32;66.33
692;BME280;70475;50.084;8.576;2023-08-21T08:35:03;101258.88;;;26.12;67.91
692;BME280;70475;50.084;8.576;2023-08-21T08:37:31;101248.47;;;26.09;67.13
692;BME280;70475;50.084;8.576;2023-08-21T08:39:58;101245.47;;;26.41;65.46
692;BME280;70475;50.084;8.576;2023-08-21T08:42:26;101250.13;;;26.50;64.91
692;BME280;70475;50.084;8.576;2023-08-21T08:44:54;101249.84;;;26.47;64.34
692;BME280;70475;50.084;8.576;2023-08-21T08:47:22;101247.13;;;26.42;64.61
692;BME280;70475;50.084;8.576;2023-08-21T08:49:53;101247.94;;;26.42;65.24
692;BME280;70475;50.084;8.576;2023-08-21T08:52:22;101248.94;;;25.96;66.28
692;BME280;70475;50.084;8.576;2023-08-21T08:54:52;101248.91;;;25.76;68.21
692;BME280;70475;50.084;8.576;2023-08-21T08:57:20;101249.22;;;25.89;68.13
692;BME280;70475;50.084;8.576;2023-08-21T08:59:47;101247.91;;;26.02;66.98
692;BME280;70475;50.084;8.576;2023-08-21T09:02:15;101245.22;;;26.37;66.62
692;BME280;70475;50.084;8.576;2023-08-21T09:04:43;101249.88;;;26.77;64.17
692;BME280;70475;50.084;8.576;2023-08-21T09:07:12;101247.97;;;26.72;64.98
692;BME280;70475;50.084;8.576;2023-08-21T09:09:40;101232.63;;;26.91;63.76
692;BME280;70475;50.084;8.576;2023-08-21T09:12:13;101236.38;;;27.05;62.73
692;BME280;70475;50.084;8.576;2023-08-21T09:14:41;101246.84;;;26.88;65.05
692;BME280;70475;50.084;8.576;2023-08-21T09:17:09;101237.28;;;26.76;65.49
692;BME280;70475;50.084;8.576;2023-08-21T09:19:37;101237.47;;;27.14;62.83
692;BME280;70475;50.084;8.576;2023-08-21T09:22:09;101234.72;;;27.29;62.42
692;BME280;70475;50.084;8.576;2023-08-21T09:24:38;101234.09;;;27.47;62.08
692;BME280;70475;50.084;8.576;2023-08-21T09:27:13;101225.59;;;27.49;63.29
692;BME280;70475;50.084;8.576;2023-08-21T09:29:43;101222.44;;;27.75;60.73
692;BME280;70475;50.084;8.576;2023-08-21T09:32:10;101230.94;;;27.69;62.19
692;BME280;70475;50.084;8.576;2023-08-21T09:34:38;101219.50;;;27.62;63.03
692;BME280;70475;50.084;8.576;2023-08-21T09:37:06;101209.94;;;27.59;64.42
692;BME280;70475;50.084;8.576;2023-08-21T09:39:35;101215.41;;;27.59;63.23
692;BME280;70475;50.084;8.576;2023-08-21T09:42:06;101222.47;;;27.70;63.45
692;BME280;70475;50.084;8.576;2023-08-21T09:44:38;101214.03;;;28.06;60.15
692;BME280;70475;50.084;8.576;2023-08-21T09:47:08;101216.97;;;27.70;63.37
692;BME280;70475;50.084;8.576;2023-08-21T09:49:37;101211.28;;;27.67;62.69
692;BME280;70475;50.084;8.576;2023-08-21T09:52:06;101217.31;;;28.08;60.30
692;BME280;70475;50.084;8.576;2023-08-21T09:54:38;101220.47;;;28.25;60.33
692;BME280;70475;50.084;8.576;2023-08-21T09:57:07;101220.34;;;28.06;60.13
692;BME280;70475;50.084;8.576;2023-08-21T09:59:34;101210.84;;;27.93;61.18
692;BME280;70475;50.084;8.576;2023-08-21T10:02:05;101215.88;;;28.15;61.34
692;BME280;70475;50.084;8.576;2023-08-21T10:04:34;101213.91;;;28.26;62.06
692;BME280;70475;50.084;8.576;2023-08-21T10:07:05;101217.88;;;28.38;60.04
692;BME280;70475;50.084;8.576;2023-08-21T10:09:35;101201.13;;;28.45;59.71
692;BME280;70475;50.084;8.576;2023-08-21T10:12:05;101205.25;;;28.09;60.08
692;BME280;70475;50.084;8.576;2023-08-21T10:14:35;101204.19;;;28.05;59.80
692;BME280;70475;50.084;8.576;2023-08-21T10:17:05;101209.94;;;28.37;60.43
692;BME280;70475;50.084;8.576;2023-08-21T10:19:34;101210.44;;;28.44;57.79
692;BME280;70475;50.084;8.576;2023-08-21T10:22:02;101206.91;;;28.72;59.12
692;BME280;70475;50.084;8.576;2023-08-21T10:24:34;101208.97;;;28.85;57.63
692;BME280;70475;50.084;8.576;2023-08-21T10:27:02;101203.16;;;28.63;57.09
692;BME280;70475;50.084;8.576;2023-08-21T10:29:30;101208.53;;;28.73;56.10
692;BME280;70475;50.084;8.576;2023-08-21T10:32:00;101200.44;;;28.86;54.00
692;BME280;70475;50.084;8.576;2023-08-21T10:34:33;101202.97;;;28.54;57.17
692;BME280;70475;50.084;8.576;2023-08-21T10:37:09;101203.97;;;28.63;54.95
692;BME280;70475;50.084;8.576;2023-08-21T10:39:54;101198.31;;;28.55;56.33
692;BME280;70475;50.084;8.576;2023-08-21T10:42:37;101196.66;;;29.06;50.89
692;BME280;70475;50.084;8.576;2023-08-21T10:45:10;101197.16;;;29.13;52.05
692;BME280;70475;50.084;8.576;2023-08-21T10:47:39;101190.88;;;29.07;53.26
692;BME280;70475;50.084;8.576;2023-08-21T10:50:08;101195.13;;;28.95;52.84
692;BME280;70475;50.084;8.576;2023-08-21T10:52:38;101191.09;;;29.34;49.96
692;BME280;70475;50.084;8.576;2023-08-21T10:55:07;101186.09;;;29.60;51.09
692;BME280;70475;50.084;8.576;2023-08-21T10:57:35;101179.50;;;29.79;49.55
692;BME280;70475;50.084;8.576;2023-08-21T11:00:05;101178.59;;;29.84;48.42
692;BME280;70475;50.084;8.576;2023-08-21T11:02:37;101176.81;;;29.93;49.88
692;BME280;70475;50.084;8.576;2023-08-21T11:05:07;101169.50;;;29.70;52.06
692;BME280;70475;50.084;8.576;2023-08-21T11:07:38;101179.13;;;29.86;48.96
692;BME280;70475;50.084;8.576;2023-08-21T11:10:08;101172.22;;;29.70;50.09
692;BME280;70475;50.084;8.576;2023-08-21T11:12:38;101169.53;;;30.02;49.05
692;BME280;70475;50.084;8.576;2023-08-21T11:15:07;101173.91;;;30.22;45.88
692;BME280;70475;50.084;8.576;2023-08-21T11:17:34;101168.25;;;30.13;47.83
692;BME280;70475;50.084;8.576;2023-08-21T11:20:03;101165.97;;;29.83;50.02
692;BME280;70475;50.084;8.576;2023-08-21T11:22:32;101164.91;;;30.16;49.75
692;BME280;70475;50.084;8.576;2023-08-21T11:25:00;101166.19;;;30.37;49.27
692;BME280;70475;50.084;8.576;2023-08-21T11:27:28;101170.63;;;30.52;45.64
692;BME280;70475;50.084;8.576;2023-08-21T11:29:56;101171.00;;;30.45;50.08
692;BME280;70475;50.084;8.576;2023-08-21T11:32:26;101173.38;;;30.65;46.64
692;BME280;70475;50.084;8.576;2023-08-21T11:34:55;101167.78;;;30.70;43.65
692;BME280;70475;50.084;8.576;2023-08-21T11:37:24;101167.22;;;30.73;41.82
692;BME280;70475;50.084;8.576;2023-08-21T11:39:56;101166.47;;;30.68;43.06
692;BME280;70475;50.084;8.576;2023-08-21T11:42:29;101163.28;;;30.47;46.41
692;BME280;70475;50.084;8.576;2023-08-21T11:44:57;101157.38;;;30.67;47.13
692;BME280;70475;50.084;8.576;2023-08-21T11:47:31;101159.28;;;30.99;47.04
692;BME280;70475;50.084;8.576;2023-08-21T11:50:03;101157.63;;;31.11;43.98
692;BME280;70475;50.084;8.576;2023-08-21T11:52:31;101151.50;;;31.01;42.21
692;BME280;70475;50.084;8.576;2023-08-21T11:55:01;101153.25;;;30.83;46.66
692;BME280;70475;50.084;8.576;2023-08-21T11:57:29;101147.22;;;31.08;45.79
692;BME280;70475;50.084;8.576;2023-08-21T11:59:56;101147.59;;;31.15;43.58
692;BME280;70475;50.084;8.576;2023-08-21T12:02:25;101150.88;;;31.04;42.13
692;BME280;70475;50.084;8.576;2023-08-21T12:04:53;101143.53;;;31.13;41.97
692;BME280;70475;50.084;8.576;2023-08-21T12:07:21;101147.81;;;31.32;43.54
692;BME280;70475;50.084;8.576;2023-08-21T12:09:49;101138.41;;;31.47;42.99
692;BME280;70475;50.084;8.576;2023-08-21T12:12:18;101131.69;;;31.39;41.12
692;BME280;70475;50.084;8.576;2023-08-21T12:14:46;101136.91;;;31.27;41.32
692;BME280;70475;50.084;8.576;2023-08-21T12:17:13;101134.94;;;31.55;43.52
692;BME280;70475;50.084;8.576;2023-08-21T12:19:41;101137.78;;;31.50;42.80
692;BME280;70475;50.084;8.576;2023-08-21T12:22:09;101137.66;;;31.91;40.67
692;BME280;70475;50.084;8.576;2023-08-21T12:24:38;101134.53;;;31.84;40.00
692;BME280;70475;50.084;8.576;2023-08-21T12:27:06;101139.75;;;31.71;42.43
692;BME280;70475;50.084;8.576;2023-08-21T12:29:35;101126.19;;;31.97;39.88
692;BME280;70475;50.084;8.576;2023-08-21T12:32:03;101125.66;;;31.73;42.46
692;BME280;70475;50.084;8.576;2023-08-21T12:34:31;101128.63;;;31.99;39.91
692;BME280;70475;50.084;8.576;2023-08-21T12:36:59;101123.38;;;32.11;41.23
692;BME280;70475;50.084;8.576;2023-08-21T12:39:26;101129.88;;;31.93;40.49
692;BME280;70475;50.084;8.576;2023-08-21T12:41:54;101118.59;;;32.03;40.85
692;BME280;70475;50.084;8.576;2023-08-21T12:44:21;101118.13;;;32.01;41.60
692;BME280;70475;50.084;8.576;2023-08-21T12:46:50;101114.28;;;32.10;38.92
692;BME280;70475;50.084;8.576;2023-08-21T12:49:18;101119.75;;;32.02;39.51
692;BME280;70475;50.084;8.576;2023-08-21T12:51:45;101125.72;;;32.26;41.06
692;BME280;70475;50.084;8.576;2023-08-21T12:54:13;101108.53;;;32.51;42.97
692;BME280;70475;50.084;8.576;2023-08-21T12:56:41;101116.16;;;32.54;39.98
692;BME280;70475;50.084;8.576;2023-08-21T12:59:08;101111.06;;;32.39;41.94
692;BME280;70475;50.084;8.576;2023-08-21T13:01:36;101093.88;;;32.42;40.93
692;BME280;70475;50.084;8.576;2023-08-21T13:04:06;101105.56;;;32.39;38.94
692;BME280;70475;50.084;8.576;2023-08-21T13:06:34;101102.00;;;32.47;39.57
692;BME280;70475;50.084;8.576;2023-08-21T13:09:01;101098.28;;;32.21;41.16
692;BME280;70475;50.084;8.576;2023-08-21T13:11:30;101095.75;;;32.33;40.11
692;BME280;70475;50.084;8.576;2023-08-21T13:13:57;101098.78;;;32.23;40.21
692;BME280;70475;50.084;8.576;2023-08-21T13:16:25;101103.47;;;32.22;41.22
692;BME280;70475;50.084;8.576;2023-08-21T13:18:53;101094.44;;;32.61;42.77